Time;durP1;ratioP1;P1;durP2;ratioP2;P2;SDS_P1;SDS_P2;PMS_P1;PMS_P2;Temp;Humidity;BMP_temperature;BMP_pressure;BME280_temperature;BME280_humidity;BME280_pressure;Samples;Min_cycle;Max_cycle;Signal;HPM_P1;HPM_P2
2024/03/24 00:01:57;;;;;;;5.90;3.70;;;;;;;5.30;74.36;97462.16;5028170;28;20108;-74
2024/03/24 00:04:22;;;;;;;4.05;3.20;;;;;;;5.37;73.96;97460.19;5053648;28;20496;-74
2024/03/24 00:06:48;;;;;;;3.80;3.40;;;;;;;5.43;73.75;97458.50;5038697;28;20045;-75
2024/03/24 00:09:13;;;;;;;4.22;3.30;;;;;;;5.34;73.83;97442.00;5013728;28;20025;-75
2024/03/24 00:11:41;;;;;;;4.57;3.38;;;;;;;5.22;74.48;97441.16;5012302;28;20396;-75
2024/03/24 00:14:06;;;;;;;4.25;3.63;;;;;;;5.15;74.53;97435.09;5030022;28;20028;-75
2024/03/24 00:16:31;;;;;;;4.40;3.72;;;;;;;5.32;74.68;97453.94;5014971;28;20033;-75
2024/03/24 00:18:57;;;;;;;4.45;3.63;;;;;;;5.30;74.71;97446.16;5036354;28;20047;-74
2024/03/24 00:21:24;;;;;;;4.38;3.50;;;;;;;5.40;73.67;97434.91;5053399;28;20029;-74
2024/03/24 00:23:50;;;;;;;6.38;3.80;;;;;;;5.41;74.00;97442.69;5035907;28;20020;-74
2024/03/24 00:26:15;;;;;;;4.68;3.65;;;;;;;5.56;73.43;97447.56;5015503;28;20036;-74
2024/03/24 00:28:41;;;;;;;7.00;3.75;;;;;;;5.43;73.72;97429.94;5025732;28;20025;-74
2024/03/24 00:31:06;;;;;;;6.45;3.78;;;;;;;5.38;74.13;97431.66;5020300;28;20113;-74
2024/03/24 00:33:33;;;;;;;6.68;3.70;;;;;;;5.55;73.85;97433.41;5037249;28;20028;-74
2024/03/24 00:35:59;;;;;;;4.07;3.63;;;;;;;5.43;74.04;97419.25;5037935;28;20029;-75
2024/03/24 00:38:26;;;;;;;4.70;3.78;;;;;;;5.43;73.81;97421.94;5034371;28;20104;-75
2024/03/24 00:40:57;;;;;;;5.97;4.18;;;;;;;5.35;73.99;97424.91;5021731;28;20043;-76
2024/03/24 00:43:24;;;;;;;6.28;3.78;;;;;;;5.48;73.83;97414.00;5027963;28;20098;-75
2024/03/24 00:45:58;;;;;;;5.68;3.90;;;;;;;5.54;73.48;97415.78;5006483;28;20450;-76
2024/03/24 00:48:24;;;;;;;8.07;4.43;;;;;;;5.31;73.37;97394.41;4995735;28;20112;-76
2024/03/24 00:50:52;;;;;;;7.75;4.47;;;;;;;5.28;73.78;97389.50;5020670;28;20488;-75
2024/03/24 00:53:20;;;;;;;5.00;4.40;;;;;;;5.26;73.74;97385.44;5036991;28;20040;-75
2024/03/24 00:55:47;;;;;;;5.15;4.60;;;;;;;5.32;74.68;97400.56;5020771;28;20025;-75
2024/03/24 00:58:15;;;;;;;4.63;4.20;;;;;;;5.28;74.21;97389.50;5020423;28;20098;-75
2024/03/24 01:00:43;;;;;;;5.38;4.35;;;;;;;5.46;74.75;97396.63;5028894;28;20419;-75
2024/03/24 01:03:15;;;;;;;5.75;4.40;;;;;;;5.53;74.39;97392.78;5030977;28;20033;-75
2024/03/24 01:05:41;;;;;;;5.85;4.47;;;;;;;5.44;73.16;97366.66;5033651;28;20036;-75
2024/03/24 01:08:07;;;;;;;7.80;5.15;;;;;;;5.42;74.31;97369.56;5018165;28;20024;-75
2024/03/24 01:10:36;;;;;;;5.45;4.90;;;;;;;5.49;74.04;97372.94;5031387;28;20404;-75
2024/03/24 01:13:02;;;;;;;5.35;4.65;;;;;;;5.35;74.41;97363.53;5034594;28;20041;-73
2024/03/24 01:15:29;;;;;;;7.95;5.57;;;;;;;5.52;74.33;97380.47;5010296;28;20032;-74
2024/03/24 01:17:56;;;;;;;5.68;4.97;;;;;;;5.46;73.79;97367.25;5028908;28;20053;-74
2024/03/24 01:20:21;;;;;;;5.82;5.22;;;;;;;5.46;73.61;97360.03;5003336;28;20191;-74
2024/03/24 01:22:48;;;;;;;6.15;5.50;;;;;;;5.55;74.01;97363.97;5035457;28;20171;-74
2024/03/24 01:25:18;;;;;;;7.25;5.78;;;;;;;5.41;74.48;97362.56;5019106;28;20029;-75
2024/03/24 01:27:44;;;;;;;7.32;6.25;;;;;;;5.43;74.31;97360.53;5061129;22;20047;-75
2024/03/24 01:30:11;;;;;;;6.18;5.50;;;;;;;5.41;74.22;97351.91;5060749;28;20029;-74
2024/03/24 01:32:37;;;;;;;6.97;6.18;;;;;;;5.43;74.28;97355.19;5049175;28;20139;-75
2024/03/24 01:35:03;;;;;;;6.13;5.53;;;;;;;5.34;73.98;97335.22;5060635;28;20060;-75
2024/03/24 01:37:28;;;;;;;8.15;6.28;;;;;;;5.37;74.05;97333.91;5026450;28;20071;-75
2024/03/24 01:39:53;;;;;;;6.55;5.78;;;;;;;5.36;74.44;97333.13;5075024;28;20028;-75
2024/03/24 01:42:19;;;;;;;6.57;5.90;;;;;;;5.25;74.10;97323.22;5023046;28;20033;-75
2024/03/24 01:44:44;;;;;;;7.00;6.30;;;;;;;5.17;73.90;97307.59;5054389;28;20436;-74
2024/03/24 01:47:10;;;;;;;7.72;6.75;;;;;;;5.32;74.82;97337.28;5025319;28;20036;-74
2024/03/24 01:49:36;;;;;;;7.20;6.00;;;;;;;5.29;74.45;97324.41;5046751;28;20100;-75
2024/03/24 01:52:13;;;;;;;8.27;6.50;;;;;;;5.26;75.21;97324.88;5054279;28;20119;-73
2024/03/24 01:54:38;;;;;;;6.85;6.15;;;;;;;5.32;74.93;97321.25;5033724;28;20043;-73
2024/03/24 01:57:04;;;;;;;7.85;5.90;;;;;;;5.37;74.01;97309.88;5032362;28;20024;-74
2024/03/24 01:59:29;;;;;;;6.93;5.82;;;;;;;5.38;75.17;97309.66;5037082;28;20036;-74
2024/03/24 02:01:55;;;;;;;6.65;5.93;;;;;;;5.40;75.17;97312.91;5053148;28;20021;-75
2024/03/24 02:04:21;;;;;;;7.18;5.82;;;;;;;5.35;74.59;97299.44;5070644;28;20036;-74
2024/03/24 02:06:46;;;;;;;6.35;5.75;;;;;;;5.23;75.24;97274.63;5059432;28;20029;-75
2024/03/24 02:09:12;;;;;;;6.25;5.63;;;;;;;5.31;74.83;97287.63;5034110;28;20040;-75
2024/03/24 02:11:37;;;;;;;7.20;6.38;;;;;;;5.24;75.02;97276.25;5057079;28;20081;-75
2024/03/24 02:14:02;;;;;;;6.22;5.72;;;;;;;5.43;75.08;97291.09;5048024;28;20128;-75
2024/03/24 02:16:28;;;;;;;7.07;5.80;;;;;;;5.37;74.56;97286.69;5021515;28;20031;-75
2024/03/24 02:18:54;;;;;;;7.28;5.88;;;;;;;5.35;74.64;97272.75;5042617;28;20471;-74
2024/03/24 02:21:19;;;;;;;9.95;6.00;;;;;;;5.43;74.26;97280.41;5054365;28;20060;-75
2024/03/24 02:23:45;;;;;;;6.75;5.97;;;;;;;5.29;74.33;97263.03;5043019;28;20032;-75
2024/03/24 02:26:10;;;;;;;8.40;6.40;;;;;;;5.39;74.42;97279.25;5058561;28;20403;-76
2024/03/24 02:28:36;;;;;;;7.90;5.82;;;;;;;5.19;75.15;97241.44;5048587;28;20122;-76
2024/03/24 02:31:02;;;;;;;7.82;5.88;;;;;;;5.28;75.00;97250.72;5050372;28;20028;-74
2024/03/24 02:33:27;;;;;;;7.13;6.20;;;;;;;5.30;74.82;97264.63;5039103;28;20118;-75
2024/03/24 02:35:53;;;;;;;6.30;5.70;;;;;;;5.13;74.21;97242.38;5044971;28;20455;-76
2024/03/24 02:38:18;;;;;;;8.85;6.05;;;;;;;5.36;75.08;97274.41;5051035;28;20109;-76
2024/03/24 02:40:47;;;;;;;9.25;5.82;;;;;;;5.31;74.72;97271.59;5032474;28;20035;-76
2024/03/24 02:43:13;;;;;;;7.82;6.03;;;;;;;5.15;74.92;97255.47;5022713;28;20032;-76
2024/03/24 02:45:38;;;;;;;6.38;5.70;;;;;;;5.23;75.10;97255.13;5047447;28;20032;-76
2024/03/24 02:48:04;;;;;;;6.32;5.60;;;;;;;5.24;74.78;97254.91;5038615;28;20037;-76
2024/03/24 02:50:29;;;;;;;8.13;6.45;;;;;;;5.15;75.01;97226.94;5035139;28;20016;-76
2024/03/24 02:52:55;;;;;;;6.63;6.00;;;;;;;5.16;75.32;97241.91;5064171;28;20560;-75
2024/03/24 02:55:24;;;;;;;6.53;5.85;;;;;;;5.06;75.63;97252.38;5050017;28;20078;-76
2024/03/24 02:57:49;;;;;;;9.57;5.90;;;;;;;4.89;75.57;97203.41;5032969;28;20098;-76
2024/03/24 03:00:15;;;;;;;6.30;5.65;;;;;;;5.16;75.22;97230.44;5044296;28;20025;-76
2024/03/24 03:02:41;;;;;;;6.45;5.35;;;;;;;5.11;75.14;97217.75;5037443;28;20091;-75
2024/03/24 03:05:07;;;;;;;6.95;5.47;;;;;;;5.29;75.15;97239.00;5046776;28;20023;-74
2024/03/24 03:07:32;;;;;;;8.70;5.70;;;;;;;5.19;74.84;97220.09;5053029;28;20116;-75
2024/03/24 03:09:58;;;;;;;6.80;5.88;;;;;;;5.19;75.74;97228.09;5038751;28;20472;-74
2024/03/24 03:12:23;;;;;;;8.48;5.88;;;;;;;5.20;75.19;97229.72;5038107;28;20033;-74
2024/03/24 03:14:48;;;;;;;8.77;6.20;;;;;;;5.25;75.32;97235.16;5056568;28;20064;-74
2024/03/24 03:17:14;;;;;;;6.57;5.93;;;;;;;5.26;75.74;97236.78;5047737;28;20037;-73
2024/03/24 03:19:39;;;;;;;6.53;5.93;;;;;;;5.09;75.40;97219.06;5041847;28;20020;-75
2024/03/24 03:22:04;;;;;;;7.97;6.25;;;;;;;5.23;75.88;97223.91;5044649;28;20033;-74
2024/03/24 03:24:30;;;;;;;8.18;6.82;;;;;;;5.11;76.22;97201.75;5013114;28;20395;-75
2024/03/24 03:26:55;;;;;;;9.70;6.60;;;;;;;5.18;75.89;97207.78;5034621;28;20106;-74
2024/03/24 03:29:21;;;;;;;7.45;6.75;;;;;;;5.12;76.45;97205.25;5037301;28;20111;-75
2024/03/24 03:31:47;;;;;;;6.95;6.25;;;;;;;5.29;76.58;97214.16;5022013;28;20037;-74
2024/03/24 03:34:12;;;;;;;7.93;7.22;;;;;;;5.11;76.77;97179.63;5049630;28;20036;-74
2024/03/24 03:36:37;;;;;;;7.82;6.63;;;;;;;5.04;77.32;97177.06;5066387;28;20040;-75
2024/03/24 03:39:04;;;;;;;8.68;7.47;;;;;;;5.28;77.80;97202.66;5029927;28;20023;-75
2024/03/24 03:41:31;;;;;;;8.50;7.65;;;;;;;5.14;77.51;97179.94;5046910;28;20059;-75
2024/03/24 03:43:56;;;;;;;8.05;7.30;;;;;;;5.23;77.40;97189.22;5046333;28;20025;-75
2024/03/24 03:46:21;;;;;;;9.10;8.07;;;;;;;5.08;78.45;97191.56;5061755;28;20082;-75
2024/03/24 03:48:48;;;;;;;8.00;7.22;;;;;;;5.15;76.89;97186.91;5066240;28;20474;-75
2024/03/24 03:51:17;;;;;;;7.75;6.47;;;;;;;5.12;77.88;97171.38;5049021;28;20047;-75
2024/03/24 03:53:48;;;;;;;10.63;8.35;;;;;;;5.26;76.74;97198.59;5032782;28;20036;-74
2024/03/24 03:56:13;;;;;;;8.43;7.22;;;;;;;5.07;77.45;97157.09;5029614;28;20032;-75
2024/03/24 03:58:42;;;;;;;8.57;7.78;;;;;;;5.19;77.43;97193.41;5059318;28;20098;-75
2024/03/24 04:01:07;;;;;;;8.07;7.07;;;;;;;5.13;78.20;97172.19;5025206;28;20040;-75
2024/03/24 04:03:35;;;;;;;8.23;7.35;;;;;;;5.15;78.31;97186.91;5039106;28;20124;-75
2024/03/24 04:06:03;;;;;;;8.52;7.65;;;;;;;5.15;78.01;97178.09;5035498;28;20119;-75
2024/03/24 04:08:28;;;;;;;10.38;6.88;;;;;;;5.23;78.19;97186.53;5021709;28;20121;-76
2024/03/24 04:10:54;;;;;;;8.43;7.63;;;;;;;5.12;78.03;97168.69;5038022;28;20071;-75
2024/03/24 04:13:19;;;;;;;7.82;7.18;;;;;;;5.18;78.48;97175.75;5037974;28;20502;-75
2024/03/24 04:15:45;;;;;;;8.50;7.63;;;;;;;5.24;77.86;97180.16;5028098;28;20051;-74
2024/03/24 04:18:10;;;;;;;8.00;7.22;;;;;;;5.16;79.30;97167.19;5026506;28;20028;-75
2024/03/24 04:20:36;;;;;;;10.45;8.32;;;;;;;5.15;78.34;97168.25;5022700;28;20036;-74
2024/03/24 04:23:03;;;;;;;8.77;7.88;;;;;;;5.13;78.77;97173.00;5048593;28;20042;-74
2024/03/24 04:25:29;;;;;;;8.98;8.07;;;;;;;5.20;79.60;97173.69;5045786;28;20127;-74
2024/03/24 04:27:54;;;;;;;8.25;7.50;;;;;;;5.18;79.19;97175.75;5049104;28;20158;-75
2024/03/24 04:30:20;;;;;;;8.40;7.55;;;;;;;5.09;79.55;97163.81;5021341;28;20186;-75
2024/03/24 04:32:45;;;;;;;9.38;8.52;;;;;;;5.19;79.06;97172.06;5037574;28;20535;-75
2024/03/24 04:35:10;;;;;;;9.02;8.23;;;;;;;4.94;79.91;97141.34;5021021;28;20127;-75
2024/03/24 04:37:36;;;;;;;8.90;8.05;;;;;;;5.07;79.20;97157.91;5036958;28;20035;-75
2024/03/24 04:40:08;;;;;;;10.15;8.30;;;;;;;5.15;79.72;97184.25;5045480;28;20377;-75
2024/03/24 04:42:34;;;;;;;8.77;7.35;;;;;;;4.98;79.57;97147.84;5046119;28;20035;-74
2024/03/24 04:45:01;;;;;;;7.78;7.10;;;;;;;4.84;80.51;97147.28;5029766;28;20029;-75
2024/03/24 04:47:28;;;;;;;7.20;6.60;;;;;;;4.83;80.69;97157.13;5046377;28;20052;-74
2024/03/24 04:49:53;;;;;;;6.60;6.10;;;;;;;4.63;81.27;97134.53;5054160;28;20020;-74
2024/03/24 04:52:18;;;;;;;5.55;5.05;;;;;;;4.80;80.91;97164.81;5046850;28;20052;-73
2024/03/24 04:54:44;;;;;;;4.93;4.63;;;;;;;4.84;80.82;97172.09;5029235;28;20112;-74
2024/03/24 04:57:09;;;;;;;4.90;4.38;;;;;;;4.82;80.30;97168.88;5048435;28;20041;-73
2024/03/24 04:59:34;;;;;;;4.50;4.20;;;;;;;4.82;81.03;97162.72;5044397;28;20020;-74
2024/03/24 05:02:00;;;;;;;4.22;3.92;;;;;;;5.03;79.68;97177.28;5017057;28;20091;-75
2024/03/24 05:04:27;;;;;;;4.30;4.00;;;;;;;5.00;79.45;97178.56;5027985;28;20078;-75
2024/03/24 05:06:53;;;;;;;4.22;3.92;;;;;;;4.78;80.03;97158.91;5036219;28;20040;-76
2024/03/24 05:09:20;;;;;;;4.50;4.10;;;;;;;4.93;79.62;97161.06;5028844;28;20036;-75
2024/03/24 05:11:46;;;;;;;4.22;3.92;;;;;;;5.08;79.22;97175.56;5040497;28;20044;-76
2024/03/24 05:14:12;;;;;;;4.40;4.10;;;;;;;5.12;79.17;97182.03;5027745;28;20017;-76
2024/03/24 05:16:38;;;;;;;4.78;4.38;;;;;;;4.91;79.92;97147.97;5031969;28;20074;-76
2024/03/24 05:19:06;;;;;;;4.53;4.22;;;;;;;4.92;79.52;97160.28;5044676;28;20116;-76
2024/03/24 05:21:32;;;;;;;4.72;4.32;;;;;;;5.01;79.44;97163.38;5020792;28;20033;-75
2024/03/24 05:23:57;;;;;;;3.72;3.42;;;;;;;5.07;78.93;97154.44;5025464;28;20016;-75
2024/03/24 05:26:24;;;;;;;4.53;4.22;;;;;;;5.06;79.50;97156.31;5046601;28;20440;-75
2024/03/24 05:28:50;;;;;;;3.90;3.70;;;;;;;4.58;78.96;97070.44;5042627;28;20080;-75
2024/03/24 05:31:15;;;;;;;4.32;4.03;;;;;;;5.05;79.34;97160.00;5015637;28;20076;-75
2024/03/24 05:33:41;;;;;;;4.93;4.53;;;;;;;5.00;78.84;97141.22;5051167;28;20071;-74
2024/03/24 05:36:07;;;;;;;5.32;4.80;;;;;;;5.18;78.73;97159.75;5048171;28;20041;-75
2024/03/24 05:38:33;;;;;;;5.00;4.60;;;;;;;5.10;79.51;97152.13;5033791;28;20120;-76
2024/03/24 05:41:00;;;;;;;179.85;126.63;;;;;;;5.20;78.27;97163.00;5037581;28;20082;-76
2024/03/24 05:43:26;;;;;;;249.77;205.00;;;;;;;5.12;78.98;97157.22;5032024;28;20016;-76
2024/03/24 05:45:55;;;;;;;40.40;36.30;;;;;;;5.12;78.63;97163.38;5036687;28;20044;-76
2024/03/24 05:48:22;;;;;;;9.93;9.23;;;;;;;5.25;79.06;97176.44;5037089;28;20029;-76
2024/03/24 05:51:00;;;;;;;5.03;4.65;;;;;;;5.25;78.40;97176.44;5030487;28;20070;-75
2024/03/24 05:53:25;;;;;;;4.90;4.60;;;;;;;5.21;78.40;97172.63;5044667;28;20051;-76
2024/03/24 05:55:51;;;;;;;4.82;4.53;;;;;;;5.12;78.16;97155.34;5034266;28;20483;-75
2024/03/24 05:58:22;;;;;;;5.80;5.35;;;;;;;5.13;78.72;97157.00;5031025;28;20040;-75
2024/03/24 06:00:48;;;;;;;4.97;4.57;;;;;;;5.21;78.61;97174.47;5038594;28;20098;-76
2024/03/24 06:03:13;;;;;;;5.88;5.38;;;;;;;5.19;78.26;97153.38;5042583;28;20476;-75
2024/03/24 06:05:39;;;;;;;6.35;5.75;;;;;;;5.36;77.94;97170.28;5021647;28;20132;-77
2024/03/24 06:08:11;;;;;;;6.30;5.80;;;;;;;5.26;77.90;97156.72;5025120;28;20020;-74
2024/03/24 06:10:37;;;;;;;6.13;5.63;;;;;;;5.36;78.59;97162.28;5062508;28;20551;-76
2024/03/24 06:13:02;;;;;;;7.50;6.90;;;;;;;5.23;78.45;97141.16;5030192;28;20119;-77
2024/03/24 06:15:28;;;;;;;7.93;7.13;;;;;;;5.35;77.82;97160.63;5051669;28;20037;-76
2024/03/24 06:17:53;;;;;;;6.03;5.53;;;;;;;5.19;77.85;97145.38;5050116;28;20031;-77
2024/03/24 06:20:19;;;;;;;7.10;6.50;;;;;;;5.42;77.88;97172.00;5036686;28;20173;-77
2024/03/24 06:22:44;;;;;;;6.40;5.80;;;;;;;5.11;78.16;97140.38;5033722;28;20021;-76
2024/03/24 06:25:09;;;;;;;6.40;5.80;;;;;;;5.38;76.93;97160.19;5048653;28;20119;-76
2024/03/24 06:27:35;;;;;;;6.57;5.97;;;;;;;5.24;77.63;97153.47;5037532;28;20029;-77
2024/03/24 06:30:01;;;;;;;6.15;5.70;;;;;;;5.22;77.95;97133.41;5035836;28;20040;-76
2024/03/24 06:32:26;;;;;;;5.22;4.80;;;;;;;5.41;78.04;97170.34;5040858;28;20033;-76
2024/03/24 06:34:52;;;;;;;5.97;5.47;;;;;;;5.44;77.93;97164.56;5035747;28;20085;-75
2024/03/24 06:37:18;;;;;;;7.40;6.70;;;;;;;5.48;77.90;97165.69;5037716;28;20024;-76
2024/03/24 06:39:43;;;;;;;7.82;7.10;;;;;;;5.47;77.13;97164.09;5028785;28;20033;-76
2024/03/24 06:42:09;;;;;;;5.63;5.07;;;;;;;5.30;77.52;97151.69;5045159;28;20038;-76
2024/03/24 06:44:40;;;;;;;5.00;4.50;;;;;;;5.48;76.68;97152.34;5043506;28;20086;-76
2024/03/24 06:47:07;;;;;;;5.28;4.78;;;;;;;5.33;77.72;97146.72;5039579;28;20039;-76
2024/03/24 06:49:33;;;;;;;4.70;4.30;;;;;;;5.36;77.77;97156.94;5042738;28;20031;-75
2024/03/24 06:51:58;;;;;;;5.47;4.18;;;;;;;5.10;76.92;97130.78;5036420;28;20408;-76
2024/03/24 06:54:24;;;;;;;3.95;3.65;;;;;;;5.55;76.09;97174.38;5016526;28;20472;-75
2024/03/24 06:56:50;;;;;;;5.13;4.18;;;;;;;5.47;76.92;97153.41;5055211;28;20129;-76
2024/03/24 06:59:15;;;;;;;4.63;4.20;;;;;;;5.44;76.94;97147.72;5051024;28;20028;-76
2024/03/24 07:01:40;;;;;;;4.45;4.05;;;;;;;5.53;76.38;97155.13;5023086;28;20036;-76
2024/03/24 07:04:06;;;;;;;4.07;3.70;;;;;;;5.65;75.06;97165.75;5022955;28;20472;-76
2024/03/24 07:06:32;;;;;;;4.15;3.78;;;;;;;5.53;75.08;97157.00;5036872;28;20029;-76
2024/03/24 07:08:58;;;;;;;4.15;3.55;;;;;;;5.54;76.34;97172.78;5041786;28;20666;-77
2024/03/24 07:11:23;;;;;;;5.20;4.15;;;;;;;5.48;76.19;97171.03;5038808;28;20056;-76
2024/03/24 07:13:49;;;;;;;3.92;3.63;;;;;;;5.48;75.05;97170.25;5041353;28;20048;-76
2024/03/24 07:16:14;;;;;;;4.00;3.58;;;;;;;5.43;75.53;97168.28;5039083;28;20040;-76
2024/03/24 07:18:40;;;;;;;3.60;3.30;;;;;;;5.34;75.16;97180.38;5048142;28;20082;-77
2024/03/24 07:21:07;;;;;;;4.35;3.40;;;;;;;5.22;74.39;97154.75;5031665;28;20039;-76
2024/03/24 07:23:32;;;;;;;5.80;3.40;;;;;;;5.00;74.36;97109.22;5019725;28;20019;-76
2024/03/24 07:25:58;;;;;;;4.97;3.50;;;;;;;5.53;73.37;97173.81;5048471;28;20111;-77
2024/03/24 07:28:23;;;;;;;3.30;3.00;;;;;;;5.56;73.97;97194.69;5061990;23;20433;-76
2024/03/24 07:30:48;;;;;;;3.47;3.17;;;;;;;5.48;74.16;97170.25;5023646;28;20135;-76
2024/03/24 07:33:14;;;;;;;3.28;3.08;;;;;;;5.61;74.76;97172.63;5057500;28;20016;-76
2024/03/24 07:35:41;;;;;;;5.53;4.15;;;;;;;5.77;74.03;97181.72;5050315;28;20095;-76
2024/03/24 07:38:06;;;;;;;3.88;3.58;;;;;;;5.78;73.90;97180.69;5010337;28;20021;-76
2024/03/24 07:40:32;;;;;;;4.00;3.60;;;;;;;5.69;73.03;97168.78;5054191;28;20090;-76
2024/03/24 07:42:57;;;;;;;2.95;2.75;;;;;;;5.64;73.01;97174.84;5035878;28;20029;-76
2024/03/24 07:45:23;;;;;;;3.72;2.92;;;;;;;5.80;72.22;97178.59;5032893;28;20120;-76
2024/03/24 07:47:49;;;;;;;3.17;2.88;;;;;;;5.83;71.71;97183.47;5036941;28;20112;-75
2024/03/24 07:50:15;;;;;;;3.45;2.80;;;;;;;5.66;72.09;97183.41;5043475;28;20103;-76
2024/03/24 07:52:40;;;;;;;2.80;2.60;;;;;;;5.89;71.82;97166.50;5034106;28;20032;-76
2024/03/24 07:55:07;;;;;;;3.88;2.70;;;;;;;6.08;71.86;97168.72;5023430;28;20040;-76
2024/03/24 07:57:32;;;;;;;3.42;2.50;;;;;;;5.99;70.86;97167.50;5048181;28;20032;-75
2024/03/24 07:59:58;;;;;;;3.13;2.63;;;;;;;6.30;70.67;97155.47;5018773;28;20033;-76
2024/03/24 08:02:23;;;;;;;2.80;2.60;;;;;;;6.48;69.67;97160.56;5025628;28;20483;-75
2024/03/24 08:04:49;;;;;;;2.83;2.53;;;;;;;6.35;68.45;97115.41;5029127;28;20037;-75
2024/03/24 08:07:14;;;;;;;2.47;2.22;;;;;;;6.65;67.96;97142.63;5018068;28;20074;-75
2024/03/24 08:09:39;;;;;;;3.40;2.75;;;;;;;6.52;68.04;97153.69;5036444;28;20475;-75
2024/03/24 08:12:05;;;;;;;3.22;2.22;;;;;;;6.13;66.64;97146.63;5049563;28;20024;-75
2024/03/24 08:14:30;;;;;;;3.10;2.05;;;;;;;6.33;66.95;97141.59;5042984;28;20568;-75
2024/03/24 08:16:57;;;;;;;6.45;4.35;;;;;;;6.33;66.97;97144.28;5031537;28;20036;-75
2024/03/24 08:19:24;;;;;;;17.45;10.75;;;;;;;6.58;67.90;97152.69;5009965;28;20041;-75
2024/03/24 08:21:50;;;;;;;30.63;21.85;;;;;;;6.56;66.59;97146.78;5034163;28;20024;-75
2024/03/24 08:24:17;;;;;;;7.55;5.30;;;;;;;6.41;66.80;97149.22;5051953;28;20060;-75
2024/03/24 08:26:42;;;;;;;5.45;4.05;;;;;;;6.28;66.31;97131.63;5034378;28;20112;-76
2024/03/24 08:29:07;;;;;;;4.60;3.70;;;;;;;6.45;66.86;97163.72;5051735;28;20132;-77
2024/03/24 08:31:33;;;;;;;8.45;6.45;;;;;;;6.20;68.49;97148.09;5029234;28;20024;-77
2024/03/24 08:33:58;;;;;;;3.05;2.60;;;;;;;6.43;68.01;97163.16;5015969;28;20396;-77
2024/03/24 08:36:24;;;;;;;3.17;2.45;;;;;;;6.16;67.60;97149.59;5019127;28;20025;-76
2024/03/24 08:38:49;;;;;;;3.80;3.00;;;;;;;6.13;68.64;97157.31;5025097;28;20041;-76
2024/03/24 08:41:14;;;;;;;2.60;2.40;;;;;;;6.26;70.02;97178.38;5028839;28;20388;-77
2024/03/24 08:43:40;;;;;;;2.60;2.33;;;;;;;6.06;68.97;97183.38;5043125;28;20479;-74
2024/03/24 08:46:05;;;;;;;3.45;2.88;;;;;;;6.10;69.30;97182.66;5013128;28;20044;-73
2024/03/24 08:48:31;;;;;;;3.40;3.10;;;;;;;6.09;69.01;97161.53;5009584;28;20037;-76
2024/03/24 08:50:56;;;;;;;7.05;3.28;;;;;;;6.20;69.90;97174.00;5028716;28;20025;-75
2024/03/24 08:53:22;;;;;;;2.92;2.40;;;;;;;5.90;70.09;97171.63;5034366;28;20654;-75
2024/03/24 08:55:47;;;;;;;2.92;2.30;;;;;;;5.81;70.08;97148.16;5017268;28;20037;-75
2024/03/24 08:58:12;;;;;;;4.55;3.10;;;;;;;5.96;70.08;97154.63;5046889;28;20041;-75
2024/03/24 09:00:38;;;;;;;4.50;2.70;;;;;;;6.04;70.84;97180.16;5034502;28;20029;-76
2024/03/24 09:03:04;;;;;;;5.25;3.83;;;;;;;6.22;70.26;97161.22;5050739;28;20104;-76
2024/03/24 09:05:29;;;;;;;3.47;2.58;;;;;;;6.13;69.83;97152.78;5016286;28;20026;-76
2024/03/24 09:07:54;;;;;;;3.42;2.85;;;;;;;6.23;69.90;97160.16;5033826;28;20036;-75
2024/03/24 09:10:21;;;;;;;4.10;2.67;;;;;;;6.19;70.13;97161.69;5050535;28;20460;-76
2024/03/24 09:12:46;;;;;;;4.22;2.55;;;;;;;6.00;70.04;97168.28;5032396;28;20112;-76
2024/03/24 09:15:12;;;;;;;3.42;2.60;;;;;;;6.00;69.41;97168.28;5017587;28;20040;-76
2024/03/24 09:17:37;;;;;;;4.22;2.80;;;;;;;5.94;69.09;97142.53;5050202;28;20040;-76
2024/03/24 09:20:03;;;;;;;3.95;3.00;;;;;;;6.05;69.06;97145.16;5033958;28;20021;-76
2024/03/24 09:22:28;;;;;;;3.80;2.92;;;;;;;6.13;69.66;97162.66;5033807;28;20140;-76
2024/03/24 09:24:53;;;;;;;3.28;2.92;;;;;;;5.99;70.35;97142.63;5033874;28;20033;-76
2024/03/24 09:27:19;;;;;;;3.03;2.72;;;;;;;6.10;69.10;97153.25;5033442;28;20041;-76
2024/03/24 09:29:45;;;;;;;5.03;3.10;;;;;;;6.13;70.79;97142.09;5033696;28;20025;-76
2024/03/24 09:32:10;;;;;;;3.65;3.15;;;;;;;6.24;69.84;97143.06;5030378;28;20045;-76
2024/03/24 09:34:36;;;;;;;3.70;3.20;;;;;;;6.46;69.44;97146.63;5036554;28;20388;-76
2024/03/24 09:37:01;;;;;;;3.15;2.80;;;;;;;6.14;70.26;97137.53;5050059;28;20110;-76
2024/03/24 09:39:26;;;;;;;3.63;3.30;;;;;;;6.06;70.16;97103.22;5037959;28;20028;-76
2024/03/24 09:41:53;;;;;;;4.05;3.65;;;;;;;6.18;70.44;97154.72;5033588;28;20049;-76
2024/03/24 09:44:19;;;;;;;3.55;3.22;;;;;;;6.13;69.88;97152.78;5024052;28;20024;-76
2024/03/24 09:46:45;;;;;;;5.32;3.90;;;;;;;6.50;70.31;97137.06;5033025;28;20033;-76
2024/03/24 09:49:14;;;;;;;6.45;3.72;;;;;;;6.14;71.18;97145.56;5019805;28;20025;-76
2024/03/24 09:51:43;;;;;;;4.93;3.88;;;;;;;6.03;72.42;97146.44;5020840;28;20411;-76
2024/03/24 09:54:10;;;;;;;4.22;3.70;;;;;;;5.88;73.32;97155.00;5037491;28;20388;-76
2024/03/24 09:56:37;;;;;;;4.88;4.38;;;;;;;5.94;73.98;97170.09;5036938;28;20048;-76
2024/03/24 09:59:03;;;;;;;4.55;4.05;;;;;;;5.87;74.70;97163.25;5020999;28;20024;-76
2024/03/24 10:01:30;;;;;;;4.18;3.88;;;;;;;5.99;74.63;97172.03;5053961;28;20037;-76
2024/03/24 10:03:55;;;;;;;4.35;3.95;;;;;;;5.81;75.54;97158.84;5053661;28;20070;-76
2024/03/24 10:06:22;;;;;;;5.43;4.40;;;;;;;5.92;74.99;97160.69;5028336;28;20440;-76
2024/03/24 10:08:48;;;;;;;5.03;4.05;;;;;;;5.78;75.95;97149.47;5052165;28;20481;-76
2024/03/24 10:11:30;;;;;;;4.75;4.28;;;;;;;5.87;75.34;97157.91;5037061;28;20048;-76
2024/03/24 10:13:57;;;;;;;5.70;4.63;;;;;;;5.81;77.22;97169.53;5032533;28;20128;-76
2024/03/24 10:16:22;;;;;;;5.20;4.25;;;;;;;5.93;77.30;97167.63;5027789;28;20068;-76
2024/03/24 10:18:48;;;;;;;5.35;4.80;;;;;;;5.94;76.27;97158.56;5033367;28;20064;-76
2024/03/24 10:21:14;;;;;;;5.43;4.93;;;;;;;5.76;77.27;97169.44;5044860;28;20029;-76
2024/03/24 10:23:39;;;;;;;5.28;4.78;;;;;;;5.92;77.75;97158.00;5020846;28;20484;-76
2024/03/24 10:26:06;;;;;;;6.60;5.05;;;;;;;6.15;77.92;97165.91;5036471;28;20032;-76
2024/03/24 10:28:31;;;;;;;4.88;4.40;;;;;;;6.08;78.10;97157.22;5020177;28;20037;-76
2024/03/24 10:31:04;;;;;;;5.63;5.00;;;;;;;5.95;77.82;97154.88;5054692;28;20028;-76
2024/03/24 10:33:32;;;;;;;5.50;5.00;;;;;;;5.96;77.66;97124.41;5035596;28;20029;-75
2024/03/24 10:35:58;;;;;;;5.55;4.78;;;;;;;6.24;77.18;97149.22;5036163;28;20021;-75
2024/03/24 10:38:23;;;;;;;5.45;4.85;;;;;;;6.39;77.46;97140.66;5028163;28;20029;-75
2024/03/24 10:40:50;;;;;;;5.22;4.72;;;;;;;6.43;77.45;97125.72;5053088;28;20078;-75
2024/03/24 10:43:16;;;;;;;4.95;4.53;;;;;;;6.37;77.06;97126.69;5041554;28;20472;-75
2024/03/24 10:45:42;;;;;;;5.10;4.60;;;;;;;6.44;76.69;97124.66;5033836;28;20032;-76
2024/03/24 10:48:09;;;;;;;5.80;5.20;;;;;;;6.43;77.81;97148.97;5052973;28;20041;-75
2024/03/24 10:50:40;;;;;;;4.78;4.28;;;;;;;6.26;76.65;97120.38;5036380;28;20021;-76
2024/03/24 10:53:10;;;;;;;5.63;4.68;;;;;;;6.50;76.98;97123.69;5015385;28;20497;-76
2024/03/24 10:55:36;;;;;;;5.65;4.78;;;;;;;6.70;76.94;97141.88;5032870;28;20131;-76
2024/03/24 10:58:02;;;;;;;5.25;4.43;;;;;;;6.56;75.74;97095.16;5040604;28;20480;-76
2024/03/24 11:00:29;;;;;;;5.28;4.53;;;;;;;6.70;75.55;97126.66;5031279;28;20032;-75
2024/03/24 11:03:00;;;;;;;4.80;4.30;;;;;;;6.87;76.02;97114.06;5052791;28;20025;-76
2024/03/24 11:05:26;;;;;;;4.13;3.72;;;;;;;7.02;75.93;97099.25;5040243;28;20037;-76
2024/03/24 11:07:52;;;;;;;5.38;4.40;;;;;;;7.28;76.09;97123.41;5035809;28;20025;-76
2024/03/24 11:10:19;;;;;;;5.18;4.40;;;;;;;7.10;74.62;97093.47;5029659;28;20489;-76
2024/03/24 11:12:45;;;;;;;5.05;4.60;;;;;;;7.28;73.88;97127.97;5027408;28;20089;-76
2024/03/24 11:15:11;;;;;;;4.85;4.43;;;;;;;6.77;75.28;97095.19;5049802;28;20110;-77
2024/03/24 11:17:36;;;;;;;6.60;4.90;;;;;;;6.72;75.50;97084.41;5029132;28;20516;-76
2024/03/24 11:20:05;;;;;;;5.70;4.55;;;;;;;6.89;74.81;97097.75;5045750;28;20043;-76
2024/03/24 11:22:44;;;;;;;5.60;5.10;;;;;;;6.86;76.55;97114.31;5053492;28;20027;-76
2024/03/24 11:25:09;;;;;;;5.90;5.28;;;;;;;6.52;77.56;97102.84;5046709;28;20116;-76
2024/03/24 11:27:38;;;;;;;5.97;5.40;;;;;;;6.49;78.20;97134.66;5051683;28;20175;-76
2024/03/24 11:30:05;;;;;;;6.28;5.38;;;;;;;6.39;79.20;97124.59;5030745;28;20033;-76
2024/03/24 11:32:54;;;;;;;7.07;6.15;;;;;;;6.29;79.15;97129.78;5035338;28;20021;-76
2024/03/24 11:35:26;;;;;;;7.60;6.80;;;;;;;6.02;78.73;97086.03;5042149;28;20510;-75
2024/03/24 11:37:52;;;;;;;7.25;6.53;;;;;;;6.03;80.49;97135.75;5014040;28;20041;-76